createdAt,value
2017-09-18T00:00:11.539Z,97.13
2017-09-18T00:02:04.543Z,97.41
2017-09-18T00:03:04.583Z,97.50
2017-09-18T00:04:57.569Z,97.60
2017-09-18T00:05:57.630Z,98.55
2017-09-18T00:07:50.637Z,97.69
2017-09-18T00:08:50.677Z,97.79
2017-09-18T00:10:43.683Z,97.22
2017-09-18T00:11:43.722Z,97.41
2017-09-18T00:13:36.709Z,98.27
2017-09-18T00:14:36.772Z,97.98
2017-09-18T00:16:29.775Z,97.60
2017-09-18T00:17:29.813Z,97.69
2017-09-18T00:19:22.801Z,97.69
2017-09-18T00:20:22.867Z,97.69
2017-09-18T00:22:15.864Z,97.88
2017-09-18T00:23:15.903Z,97.31
2017-09-18T00:25:08.885Z,97.60
2017-09-18T00:26:08.945Z,98.27
2017-09-18T00:28:01.948Z,97.60
2017-09-18T00:29:01.989Z,97.31
2017-09-18T00:30:54.994Z,97.60
2017-09-18T00:31:55.030Z,97.88
2017-09-18T00:33:48.012Z,97.69
2017-09-18T00:34:48.073Z,97.88
2017-09-18T00:36:41.074Z,97.41
2017-09-18T00:37:41.114Z,97.88
2017-09-18T00:39:34.098Z,97.60
2017-09-18T00:40:34.159Z,98.03
2017-09-18T00:42:27.164Z,98.46
2017-09-18T00:43:27.205Z,98.74
2017-09-18T00:45:20.185Z,98.83
2017-09-18T00:46:20.245Z,98.08
2017-09-18T00:48:13.248Z,97.31
2017-09-18T00:49:13.286Z,97.17
2017-09-18T00:51:06.292Z,97.27
2017-09-18T00:52:06.329Z,97.27
2017-09-18T00:53:59.315Z,97.64
2017-09-18T00:54:59.372Z,97.64
2017-09-18T00:56:52.377Z,97.45
2017-09-18T00:57:52.630Z,97.74
2017-09-18T00:59:45.401Z,98.03
2017-09-18T01:00:45.459Z,98.69
2017-09-18T01:02:38.464Z,98.60
2017-09-18T01:03:38.505Z,98.41
2017-09-18T01:05:31.483Z,98.60
2017-09-18T01:06:31.543Z,97.36
2017-09-18T01:08:24.547Z,98.03
2017-09-18T01:09:24.584Z,98.31
2017-09-18T01:11:17.587Z,98.79
2017-09-18T01:12:17.629Z,97.93
2017-09-18T01:14:10.609Z,97.64
2017-09-18T01:15:10.670Z,97.74
2017-09-18T01:17:03.672Z,97.45
2017-09-18T01:18:03.711Z,97.69
2017-09-18T01:19:56.700Z,97.93
2017-09-18T01:20:56.760Z,97.64
2017-09-18T01:22:49.763Z,98.03
2017-09-18T01:23:49.804Z,97.83
2017-09-18T01:25:42.783Z,98.69
2017-09-18T01:26:42.844Z,98.60
2017-09-18T01:28:35.847Z,99.45
2017-09-18T01:29:35.886Z,99.07
2017-09-18T01:31:28.889Z,99.84
2017-09-18T01:32:28.927Z,99.93
2017-09-18T01:34:21.915Z,99.99
2017-09-18T01:35:21.974Z,99.74
2017-09-18T01:37:14.980Z,99.45
2017-09-18T01:38:15.021Z,99.93
2017-09-18T01:40:08.017Z,99.16
2017-09-18T01:41:08.062Z,98.50
2017-09-18T01:43:01.069Z,99.45
2017-09-18T01:44:01.108Z,99.84
2017-09-18T01:45:54.096Z,99.84
2017-09-18T01:46:54.149Z,99.55
2017-09-18T01:48:47.154Z,99.55
2017-09-18T01:49:47.193Z,98.69
2017-09-18T01:51:40.199Z,99.12
2017-09-18T01:52:40.237Z,99.60
2017-09-18T01:54:33.221Z,99.60
2017-09-18T01:55:33.280Z,99.41
2017-09-18T01:57:26.282Z,99.31
2017-09-18T01:58:26.321Z,99.12
2017-09-18T02:00:19.303Z,99.50
2017-09-18T02:01:19.363Z,99.98
2017-09-18T02:03:12.367Z,99.12
2017-09-18T02:04:12.407Z,99.50
2017-09-18T02:06:05.390Z,99.12
2017-09-18T02:07:05.449Z,98.55
2017-09-18T02:08:58.453Z,99.02
2017-09-18T02:09:58.492Z,99.12
2017-09-18T02:11:51.495Z,98.65
2017-09-18T02:12:51.534Z,99.22
2017-09-18T02:14:44.518Z,98.74
2017-09-18T02:15:44.577Z,99.22
2017-09-18T02:17:37.581Z,99.50
2017-09-18T02:18:37.620Z,99.99
2017-09-18T02:20:30.607Z,99.99
2017-09-18T02:21:30.664Z,99.22
2017-09-18T02:23:23.667Z,99.79
2017-09-18T02:24:23.709Z,99.88
2017-09-18T02:26:16.689Z,99.98
2017-09-18T02:27:16.748Z,99.99
2017-09-18T02:29:09.759Z,99.99
2017-09-18T02:30:09.792Z,99.99
2017-09-18T02:32:02.838Z,99.99
2017-09-18T02:33:02.833Z,99.99
2017-09-18T02:34:55.818Z,99.99
2017-09-18T02:35:55.886Z,99.99
2017-09-18T02:37:48.902Z,99.99
2017-09-18T02:38:48.935Z,99.99
2017-09-18T02:40:41.922Z,99.99
2017-09-18T02:41:41.978Z,99.99
2017-09-18T02:43:34.977Z,99.99
2017-09-18T02:44:35.016Z,99.99
2017-09-18T02:46:28.005Z,99.99
2017-09-18T02:47:28.064Z,99.99
2017-09-18T02:49:21.066Z,99.99
2017-09-18T02:50:21.108Z,99.99
2017-09-18T02:52:14.109Z,99.99
2017-09-18T02:53:14.147Z,99.99
2017-09-18T02:55:07.130Z,99.99
2017-09-18T02:56:07.188Z,99.99
2017-09-18T02:58:00.192Z,99.99
2017-09-18T02:59:00.232Z,99.99
2017-09-18T03:00:53.213Z,99.99
2017-09-18T03:01:53.272Z,99.99
2017-09-18T03:03:46.274Z,99.99
2017-09-18T03:04:46.316Z,99.99
2017-09-18T03:06:39.300Z,99.99
2017-09-18T03:07:39.359Z,99.99
2017-09-18T03:09:32.361Z,99.99
2017-09-18T03:10:32.400Z,99.99
2017-09-18T03:12:25.404Z,99.99
2017-09-18T03:13:25.442Z,99.99
2017-09-18T03:15:18.941Z,99.99
2017-09-18T03:16:18.991Z,99.99
2017-09-18T03:18:11.995Z,99.99
2017-09-18T03:19:12.034Z,99.99
2017-09-18T03:21:05.020Z,99.99
2017-09-18T03:22:05.080Z,99.99
2017-09-18T03:23:58.082Z,99.99
2017-09-18T03:24:58.123Z,99.99
2017-09-18T03:26:51.116Z,99.99
2017-09-18T03:27:51.164Z,99.99
2017-09-18T03:29:44.168Z,99.99
2017-09-18T03:30:44.209Z,99.99
2017-09-18T03:32:37.210Z,99.99
2017-09-18T03:33:37.250Z,99.99
2017-09-18T03:35:30.237Z,99.99
2017-09-18T03:36:30.293Z,99.99
2017-09-18T03:38:23.307Z,99.99
2017-09-18T03:39:23.344Z,99.99
2017-09-18T03:41:16.329Z,99.99
2017-09-18T03:42:16.387Z,99.99
2017-09-18T03:44:09.392Z,99.99
2017-09-18T03:45:09.435Z,99.99
2017-09-18T03:47:02.431Z,99.99
2017-09-18T03:48:02.494Z,99.99
2017-09-18T03:49:55.489Z,99.99
2017-09-18T03:50:55.552Z,99.99
2017-09-18T03:52:48.540Z,99.99
2017-09-18T03:53:48.575Z,99.99
2017-09-18T03:55:41.563Z,99.99
2017-09-18T03:56:41.603Z,99.99
2017-09-18T03:58:34.612Z,99.99
2017-09-18T03:59:34.653Z,99.99
2017-09-18T04:01:28.148Z,99.99
2017-09-18T04:02:28.204Z,99.99
2017-09-18T04:04:21.213Z,99.99
2017-09-18T04:05:21.251Z,99.99
2017-09-18T04:07:14.235Z,99.99
2017-09-18T04:08:14.294Z,99.99
2017-09-18T04:10:07.302Z,99.99
2017-09-18T04:11:07.340Z,99.99
2017-09-18T04:13:00.346Z,99.99
2017-09-18T04:14:00.389Z,99.99
2017-09-18T04:15:53.370Z,99.99
2017-09-18T04:16:53.427Z,99.99
2017-09-18T04:18:46.428Z,99.99
2017-09-18T04:19:46.467Z,99.99
2017-09-18T04:21:39.450Z,99.99
2017-09-18T04:22:39.509Z,99.99
2017-09-18T04:24:32.517Z,99.99
2017-09-18T04:25:32.556Z,99.99
2017-09-18T04:27:25.538Z,99.99
2017-09-18T04:28:25.597Z,99.99
2017-09-18T04:30:18.603Z,99.99
2017-09-18T04:31:18.643Z,99.99
2017-09-18T04:33:11.648Z,99.99
2017-09-18T04:34:11.687Z,99.99
2017-09-18T04:36:04.674Z,99.99
2017-09-18T04:37:04.731Z,99.99
2017-09-18T04:38:57.735Z,99.99
2017-09-18T04:39:57.773Z,99.99
2017-09-18T04:41:50.756Z,99.99
2017-09-18T04:42:50.817Z,99.99
2017-09-18T04:44:43.821Z,99.99
2017-09-18T04:45:43.860Z,99.99
2017-09-18T04:47:36.848Z,99.99
2017-09-18T04:48:36.906Z,99.99
2017-09-18T04:50:29.909Z,99.99
2017-09-18T04:51:29.951Z,99.99
2017-09-18T04:53:22.959Z,99.99
2017-09-18T04:54:22.992Z,99.99
2017-09-18T04:56:15.979Z,99.99
2017-09-18T04:57:16.037Z,99.99
2017-09-18T04:59:09.040Z,99.99
2017-09-18T05:00:09.079Z,99.99
2017-09-18T05:02:02.062Z,99.99
2017-09-18T05:03:02.122Z,99.99
2017-09-18T05:04:55.135Z,99.99
2017-09-18T05:05:55.170Z,99.99
2017-09-18T05:07:48.202Z,99.99
2017-09-18T05:08:48.264Z,99.99
2017-09-18T05:10:41.266Z,99.99
2017-09-18T05:11:41.565Z,99.99
2017-09-18T05:13:34.309Z,99.99
2017-09-18T05:14:34.348Z,99.99
2017-09-18T05:16:27.332Z,99.99
2017-09-18T05:17:27.391Z,99.99
2017-09-18T05:19:20.402Z,99.99
2017-09-18T05:20:20.442Z,99.99
2017-09-18T05:22:13.428Z,99.99
2017-09-18T05:23:13.485Z,99.99
2017-09-18T05:25:06.492Z,99.99
2017-09-18T05:26:06.531Z,99.99
2017-09-18T05:27:59.524Z,99.99
2017-09-18T05:28:59.585Z,99.99
2017-09-18T05:30:52.605Z,99.99
2017-09-18T05:31:52.624Z,99.99
2017-09-18T05:33:45.626Z,99.99
2017-09-18T05:34:45.664Z,99.99
2017-09-18T05:36:38.651Z,99.99
2017-09-18T05:37:38.706Z,99.99
2017-09-18T05:39:31.709Z,99.99
2017-09-18T05:40:31.751Z,99.99
2017-09-18T05:42:24.736Z,99.99
2017-09-18T05:43:24.797Z,99.99
2017-09-18T05:45:17.806Z,99.99
2017-09-18T05:46:17.846Z,99.99
2017-09-18T05:48:10.829Z,99.99
2017-09-18T05:49:10.888Z,99.99
2017-09-18T05:51:03.901Z,99.99
2017-09-18T05:52:03.931Z,99.99
2017-09-18T05:53:56.943Z,99.99
2017-09-18T05:54:56.980Z,99.99
2017-09-18T05:56:49.963Z,99.99
2017-09-18T05:57:50.020Z,99.99
2017-09-18T05:59:43.025Z,99.99
2017-09-18T06:00:43.065Z,99.99
2017-09-18T06:02:36.057Z,99.99
2017-09-18T06:03:36.111Z,99.99
2017-09-18T06:05:29.118Z,99.99
2017-09-18T06:06:29.159Z,99.99
2017-09-18T06:08:22.143Z,99.99
2017-09-18T06:09:22.205Z,99.99
2017-09-18T06:11:15.217Z,99.99
2017-09-18T06:12:15.257Z,99.99
2017-09-18T06:14:08.266Z,99.99
2017-09-18T06:15:08.303Z,99.99
2017-09-18T06:17:01.291Z,99.99
2017-09-18T06:18:01.348Z,99.99
2017-09-18T06:19:54.356Z,99.99
2017-09-18T06:20:54.395Z,99.99
2017-09-18T06:22:47.383Z,99.99
2017-09-18T06:23:47.444Z,99.99
2017-09-18T06:25:40.446Z,99.99
2017-09-18T06:26:40.484Z,99.99
2017-09-18T06:28:33.472Z,99.99
2017-09-18T06:29:33.528Z,99.99
2017-09-18T06:31:26.531Z,99.99
2017-09-18T06:32:26.572Z,99.99
2017-09-18T06:34:19.577Z,99.99
2017-09-18T06:35:19.618Z,99.99
2017-09-18T06:37:12.607Z,99.99
2017-09-18T06:38:12.668Z,99.99
2017-09-18T06:40:05.674Z,99.99
2017-09-18T06:41:05.713Z,99.99
2017-09-18T06:42:58.702Z,99.99
2017-09-18T06:43:58.759Z,99.99
2017-09-18T06:45:51.763Z,99.99
2017-09-18T06:46:51.808Z,99.99
2017-09-18T06:48:44.791Z,99.99
2017-09-18T06:49:44.851Z,99.99
2017-09-18T06:51:37.854Z,99.99
2017-09-18T06:52:37.900Z,99.99
2017-09-18T06:54:30.900Z,99.99
2017-09-18T06:55:30.942Z,99.99
2017-09-18T06:57:23.930Z,99.99
2017-09-18T06:58:23.989Z,99.99
2017-09-18T07:00:16.998Z,99.99
2017-09-18T07:01:17.038Z,99.99
2017-09-18T07:03:10.015Z,99.99
2017-09-18T07:04:10.078Z,99.99
2017-09-18T07:06:03.085Z,99.99
2017-09-18T07:07:03.129Z,99.99
2017-09-18T07:08:56.111Z,99.99
2017-09-18T07:09:56.167Z,99.99
2017-09-18T07:11:49.176Z,99.99
2017-09-18T07:12:49.216Z,99.99
2017-09-18T07:14:42.223Z,99.99
2017-09-18T07:15:42.259Z,99.99
2017-09-18T07:17:35.248Z,99.99
2017-09-18T07:18:35.304Z,99.99
2017-09-18T07:20:28.310Z,99.99
2017-09-18T07:21:28.358Z,99.71
2017-09-18T07:23:21.342Z,98.47
2017-09-18T07:24:21.403Z,97.80
2017-09-18T07:26:14.419Z,98.56
2017-09-18T07:27:14.466Z,97.99
2017-09-18T07:29:07.451Z,97.89
2017-09-18T07:30:07.507Z,98.56
2017-09-18T07:32:00.514Z,97.94
2017-09-18T07:33:00.557Z,97.47
2017-09-18T07:34:53.557Z,97.08
2017-09-18T07:35:53.600Z,97.27
2017-09-18T07:37:46.588Z,97.18
2017-09-18T07:38:46.646Z,97.18
2017-09-18T07:40:39.655Z,97.56
2017-09-18T07:41:39.697Z,97.18
2017-09-18T07:43:32.686Z,97.27
2017-09-18T07:44:32.743Z,97.85
2017-09-18T07:46:25.751Z,98.85
2017-09-18T07:47:25.792Z,97.89
2017-09-18T07:49:18.779Z,98.94
2017-09-18T07:50:18.839Z,98.94
2017-09-18T07:52:11.848Z,99.42
2017-09-18T07:53:11.888Z,99.42
2017-09-18T07:55:04.898Z,99.52
2017-09-18T07:56:04.938Z,99.52
2017-09-18T07:57:57.928Z,99.23
2017-09-18T07:58:57.986Z,99.42
2017-09-18T08:00:51.506Z,99.52
2017-09-18T08:01:51.540Z,99.99
2017-09-18T08:03:44.528Z,99.23
2017-09-18T08:04:44.588Z,99.80
2017-09-18T08:06:37.600Z,99.99
2017-09-18T08:07:37.639Z,99.99
2017-09-18T08:09:30.632Z,99.99
2017-09-18T08:10:30.692Z,99.99
2017-09-18T08:12:23.701Z,99.04
2017-09-18T08:13:23.742Z,99.13
2017-09-18T08:15:16.749Z,98.61
2017-09-18T08:16:16.790Z,98.52
2017-09-18T08:18:09.779Z,98.03
2017-09-18T08:19:09.841Z,97.66
2017-09-18T08:21:02.849Z,96.32
2017-09-18T08:22:02.888Z,97.08
2017-09-18T08:23:55.882Z,96.61
2017-09-18T08:24:55.938Z,96.98
2017-09-18T08:26:48.942Z,96.80
2017-09-18T08:27:48.984Z,96.98
2017-09-18T08:29:41.973Z,97.94
2017-09-18T08:30:42.037Z,97.94
2017-09-18T08:32:35.037Z,97.18
2017-09-18T08:33:35.085Z,97.37
2017-09-18T08:35:28.089Z,97.56
2017-09-18T08:36:28.127Z,97.27
2017-09-18T08:38:21.117Z,97.85
2017-09-18T08:39:21.174Z,97.94
2017-09-18T08:41:14.181Z,99.08
2017-09-18T08:42:14.222Z,99.85
2017-09-18T08:44:07.210Z,98.75
2017-09-18T08:45:07.275Z,98.94
2017-09-18T08:47:00.282Z,99.57
2017-09-18T08:48:00.321Z,99.80
2017-09-18T08:49:53.311Z,99.18
2017-09-18T08:50:53.375Z,99.04
2017-09-18T08:52:46.375Z,99.85
2017-09-18T08:53:46.420Z,99.66
2017-09-18T08:55:39.424Z,98.71
2017-09-18T08:56:39.466Z,98.32
2017-09-18T08:58:32.455Z,97.99
2017-09-18T08:59:32.516Z,98.08
2017-09-18T09:01:26.037Z,97.52
2017-09-18T09:02:26.074Z,97.03
2017-09-18T09:04:19.063Z,97.03
2017-09-18T09:05:19.121Z,96.27
2017-09-18T09:07:12.141Z,96.32
2017-09-18T09:08:12.170Z,96.32
2017-09-18T09:10:05.159Z,95.94
2017-09-18T09:11:05.217Z,94.79
2017-09-18T09:12:58.241Z,95.46
2017-09-18T09:13:58.269Z,96.32
2017-09-18T09:15:51.280Z,94.89
2017-09-18T09:16:51.317Z,95.46
2017-09-18T09:18:44.308Z,95.46
2017-09-18T09:19:44.368Z,95.27
2017-09-18T09:21:37.378Z,94.65
2017-09-18T09:22:37.419Z,94.41
2017-09-18T09:24:30.408Z,94.70
2017-09-18T09:25:30.488Z,94.98
2017-09-18T09:27:23.487Z,95.27
2017-09-18T09:28:23.520Z,95.61
2017-09-18T09:30:16.510Z,96.03
2017-09-18T09:31:16.570Z,96.13
2017-09-18T09:33:09.581Z,96.32
2017-09-18T09:34:09.624Z,96.13
2017-09-18T09:36:02.638Z,95.84
2017-09-18T09:37:02.674Z,94.89
2017-09-18T09:38:55.660Z,94.60
2017-09-18T09:39:55.722Z,94.41
2017-09-18T09:41:48.731Z,95.27
2017-09-18T09:42:48.778Z,95.46
2017-09-18T09:44:41.763Z,96.42
2017-09-18T09:45:41.822Z,96.56
2017-09-18T09:47:34.835Z,96.66
2017-09-18T09:48:34.877Z,97.13
2017-09-18T09:50:27.870Z,96.17
2017-09-18T09:51:27.927Z,96.37
2017-09-18T09:53:20.937Z,96.27
2017-09-18T09:54:20.977Z,96.27
2017-09-18T09:56:14.005Z,96.66
2017-09-18T09:57:14.031Z,95.89
2017-09-18T09:59:07.020Z,96.66
2017-09-18T10:00:07.080Z,95.98
2017-09-18T10:02:00.089Z,95.70
2017-09-18T10:03:00.130Z,96.27
2017-09-18T10:04:53.122Z,95.41
2017-09-18T10:05:53.178Z,94.65
2017-09-18T10:07:46.187Z,95.89
2017-09-18T10:08:46.231Z,96.46
2017-09-18T10:10:39.222Z,96.17
2017-09-18T10:11:39.280Z,96.17
2017-09-18T10:13:32.288Z,97.03
2017-09-18T10:14:32.327Z,96.37
2017-09-18T10:16:25.341Z,96.46
2017-09-18T10:17:25.383Z,96.66
2017-09-18T10:19:18.376Z,96.27
2017-09-18T10:20:18.429Z,96.56
2017-09-18T10:22:11.436Z,96.84
2017-09-18T10:23:11.477Z,96.66
2017-09-18T10:25:04.472Z,96.46
2017-09-18T10:26:04.528Z,96.46
2017-09-18T10:27:57.534Z,96.75
2017-09-18T10:28:57.577Z,96.75
2017-09-18T10:30:50.577Z,95.98
2017-09-18T10:31:50.627Z,96.42
2017-09-18T10:33:43.645Z,94.65
2017-09-18T10:34:43.687Z,93.69
2017-09-18T10:36:36.702Z,94.84
2017-09-18T10:37:36.739Z,93.93
2017-09-18T10:39:29.730Z,94.31
2017-09-18T10:40:29.789Z,94.65
2017-09-18T10:42:22.800Z,94.21
2017-09-18T10:43:22.842Z,94.07
2017-09-18T10:45:15.833Z,91.83
2017-09-18T10:46:15.897Z,92.54
2017-09-18T10:48:08.915Z,92.59
2017-09-18T10:49:08.969Z,93.93
2017-09-18T10:51:01.949Z,92.88
2017-09-18T10:52:02.018Z,93.07
2017-09-18T10:53:55.020Z,92.59
2017-09-18T10:54:55.062Z,91.92
2017-09-18T10:56:48.121Z,90.53
2017-09-18T10:57:48.117Z,90.72
2017-09-18T10:59:41.113Z,90.53
2017-09-18T11:00:41.174Z,89.29
2017-09-18T11:02:34.188Z,90.72
2017-09-18T11:03:34.232Z,91.30
2017-09-18T11:05:27.225Z,90.44
2017-09-18T11:06:27.296Z,92.83
2017-09-18T11:08:20.314Z,90.53
2017-09-18T11:09:20.342Z,90.34
2017-09-18T11:11:13.337Z,89.95
2017-09-18T11:12:13.397Z,89.76
2017-09-18T11:14:06.408Z,90.48
2017-09-18T11:15:06.449Z,89.62
2017-09-18T11:16:59.477Z,89.81
2017-09-18T11:17:59.508Z,90.87
2017-09-18T11:19:52.500Z,91.11
2017-09-18T11:20:52.564Z,90.01
2017-09-18T11:22:45.582Z,89.34
2017-09-18T11:23:45.613Z,90.67
2017-09-18T11:25:38.606Z,90.39
2017-09-18T11:26:38.670Z,90.48
2017-09-18T11:28:31.700Z,89.53
2017-09-18T11:29:31.730Z,88.95
2017-09-18T11:31:24.724Z,89.05
2017-09-18T11:32:24.786Z,89.91
2017-09-18T11:34:17.801Z,89.15
2017-09-18T11:35:17.852Z,89.19
2017-09-18T11:37:10.858Z,88.29
2017-09-18T11:38:10.901Z,87.66
2017-09-18T11:40:03.934Z,86.80
2017-09-18T11:41:03.987Z,86.32
2017-09-18T11:42:57.005Z,86.74
2017-09-18T11:43:57.045Z,86.65
2017-09-18T11:45:50.031Z,87.23
2017-09-18T11:46:50.094Z,86.55
2017-09-18T11:48:43.117Z,87.56
2017-09-18T11:49:43.145Z,88.67
2017-09-18T11:51:36.140Z,88.86
2017-09-18T11:52:36.204Z,87.81
2017-09-18T11:54:29.219Z,87.37
2017-09-18T11:55:29.259Z,86.65
2017-09-18T11:57:22.294Z,86.84
2017-09-18T11:58:22.315Z,86.08
2017-09-18T12:00:15.308Z,85.16
2017-09-18T12:01:15.370Z,84.68
2017-09-18T12:03:08.383Z,84.92
2017-09-18T12:04:08.429Z,85.31
2017-09-18T12:06:01.420Z,86.08
2017-09-18T12:07:01.482Z,86.50
2017-09-18T12:08:54.494Z,84.88
2017-09-18T12:09:54.537Z,84.53
2017-09-18T12:11:47.541Z,83.76
2017-09-18T12:12:47.595Z,80.12
2017-09-18T12:14:40.610Z,80.89
2017-09-18T12:15:40.654Z,82.00
2017-09-18T12:17:33.705Z,80.27
2017-09-18T12:18:33.730Z,80.76
2017-09-18T12:20:26.721Z,80.76
2017-09-18T12:21:26.784Z,82.29
2017-09-18T12:23:19.807Z,82.15
2017-09-18T12:24:19.840Z,82.15
2017-09-18T12:26:12.843Z,84.02
2017-09-18T12:27:12.907Z,83.54
2017-09-18T12:29:05.919Z,84.79
2017-09-18T12:30:05.962Z,84.64
2017-09-18T12:31:58.956Z,84.74
2017-09-18T12:32:59.022Z,84.74
2017-09-18T12:34:52.037Z,84.45
2017-09-18T12:35:52.081Z,84.35
2017-09-18T12:37:45.092Z,84.83
2017-09-18T12:38:45.132Z,84.06
2017-09-18T12:40:39.132Z,83.68
2017-09-18T12:41:39.196Z,84.26
2017-09-18T12:43:32.211Z,84.49
2017-09-18T12:44:32.248Z,83.68
2017-09-18T12:46:25.252Z,83.97
2017-09-18T12:47:25.306Z,84.06
2017-09-18T12:49:18.375Z,84.83
2017-09-18T12:50:18.368Z,84.74
2017-09-18T12:52:11.369Z,83.49
2017-09-18T12:53:11.435Z,82.82
2017-09-18T12:55:04.445Z,83.49
2017-09-18T12:56:04.485Z,82.82
2017-09-18T12:57:57.499Z,83.01
2017-09-18T12:58:57.540Z,84.22
2017-09-18T13:00:51.053Z,83.97
2017-09-18T13:01:51.106Z,83.59
2017-09-18T13:03:44.130Z,82.82
2017-09-18T13:04:44.175Z,84.26
2017-09-18T13:06:37.172Z,84.83
2017-09-18T13:07:37.238Z,82.82
2017-09-18T13:09:30.260Z,85.08
2017-09-18T13:10:30.290Z,85.12
2017-09-18T13:12:23.281Z,84.64
2017-09-18T13:13:23.358Z,84.45
2017-09-18T13:15:16.358Z,82.63
2017-09-18T13:16:16.398Z,83.25
2017-09-18T13:18:09.416Z,82.00
2017-09-18T13:19:09.462Z,82.38
2017-09-18T13:21:02.454Z,81.81
2017-09-18T13:22:02.519Z,81.23
2017-09-18T13:23:55.530Z,81.23
2017-09-18T13:24:55.573Z,80.37
2017-09-18T13:26:48.568Z,81.04
2017-09-18T13:27:48.634Z,80.94
2017-09-18T13:29:41.646Z,79.70
2017-09-18T13:30:41.690Z,81.23
2017-09-18T13:32:34.689Z,80.12
2017-09-18T13:33:34.754Z,80.12
2017-09-18T13:35:27.768Z,81.85
2017-09-18T13:36:27.807Z,79.16
2017-09-18T13:38:20.865Z,80.41
2017-09-18T13:39:20.862Z,79.26
2017-09-18T13:41:13.857Z,79.93
2017-09-18T13:42:13.915Z,80.03
2017-09-18T13:44:06.931Z,77.97
2017-09-18T13:45:06.978Z,79.32
2017-09-18T13:46:59.971Z,79.13
2017-09-18T13:48:00.034Z,79.85
2017-09-18T13:49:53.073Z,81.13
2017-09-18T13:50:53.090Z,80.24
2017-09-18T13:52:46.091Z,81.71
2017-09-18T13:53:46.145Z,81.57
2017-09-18T13:55:39.159Z,82.15
2017-09-18T13:56:39.210Z,82.15
2017-09-18T13:58:32.231Z,81.86
2017-09-18T13:59:32.263Z,82.06
2017-09-18T14:01:25.259Z,83.01
2017-09-18T14:02:25.321Z,82.63
2017-09-18T14:04:18.367Z,82.73
2017-09-18T14:05:18.383Z,83.26
2017-09-18T14:07:11.375Z,83.16
2017-09-18T14:08:11.443Z,83.93
2017-09-18T14:10:04.456Z,84.12
2017-09-18T14:11:04.495Z,83.93
2017-09-18T14:12:57.492Z,84.79
2017-09-18T14:13:57.554Z,84.22
2017-09-18T14:15:50.609Z,83.73
2017-09-18T14:16:50.609Z,83.93
2017-09-18T14:18:43.655Z,84.22
2017-09-18T14:19:43.676Z,84.45
2017-09-18T14:21:36.687Z,82.82
2017-09-18T14:22:36.723Z,83.49
2017-09-18T14:24:29.742Z,82.43
2017-09-18T14:25:29.783Z,80.33
2017-09-18T14:27:22.814Z,80.24
2017-09-18T14:28:22.839Z,80.33
2017-09-18T14:30:15.852Z,77.75
2017-09-18T14:31:15.893Z,78.42
2017-09-18T14:33:10.423Z,78.42
2017-09-18T14:34:10.465Z,79.18
2017-09-18T14:36:03.513Z,78.61
2017-09-18T14:37:03.537Z,78.61
2017-09-18T14:38:56.557Z,77.75
2017-09-18T14:39:56.588Z,78.61
2017-09-18T14:41:49.581Z,79.95
2017-09-18T14:42:49.644Z,78.89
2017-09-18T14:44:42.685Z,81.00
2017-09-18T14:45:42.703Z,81.38
2017-09-18T14:47:35.698Z,79.81
2017-09-18T14:48:35.763Z,80.00
2017-09-18T14:50:29.282Z,76.84
2017-09-18T14:51:29.332Z,76.71
2017-09-18T14:53:22.319Z,78.14
2017-09-18T14:54:22.386Z,78.05
2017-09-18T14:56:15.381Z,78.68
2017-09-18T14:57:15.425Z,78.11
2017-09-18T14:59:08.963Z,78.87
2017-09-18T15:00:08.985Z,79.25
2017-09-18T15:02:02.483Z,80.50
2017-09-18T15:03:02.543Z,82.51
2017-09-18T15:04:56.082Z,84.76
2017-09-18T15:05:56.101Z,86.19
2017-09-18T15:07:49.094Z,87.53
2017-09-18T15:08:49.156Z,87.15
2017-09-18T15:10:42.179Z,87.53
2017-09-18T15:11:42.222Z,86.76
2017-09-18T15:13:35.214Z,87.96
2017-09-18T15:14:35.289Z,88.54
2017-09-18T15:16:28.288Z,89.11
2017-09-18T15:17:28.329Z,89.30
2017-09-18T15:19:21.339Z,91.02
2017-09-18T15:20:21.380Z,90.73
2017-09-18T15:22:14.379Z,92.16
2017-09-18T15:23:14.446Z,91.93
2017-09-18T15:25:07.450Z,92.97
2017-09-18T15:26:07.495Z,93.65
2017-09-18T15:28:00.483Z,93.55
2017-09-18T15:29:00.545Z,92.88
2017-09-18T15:30:53.569Z,94.31
2017-09-18T15:31:53.601Z,94.89
2017-09-18T15:33:46.617Z,94.89
2017-09-18T15:34:46.658Z,95.08
2017-09-18T15:36:39.695Z,94.70
2017-09-18T15:37:39.709Z,94.89
2017-09-18T15:39:32.744Z,94.89
2017-09-18T15:40:32.789Z,95.17
2017-09-18T15:42:25.772Z,94.65
2017-09-18T15:43:25.832Z,94.65
2017-09-18T15:45:18.850Z,94.36
2017-09-18T15:46:18.917Z,94.79
2017-09-18T15:48:11.887Z,94.56
2017-09-18T15:49:11.969Z,94.70
2017-09-18T15:51:04.971Z,95.41
2017-09-18T15:52:05.012Z,94.70
2017-09-18T15:53:58.001Z,94.31
2017-09-18T15:54:58.065Z,94.89
2017-09-18T15:56:51.073Z,94.70
2017-09-18T15:57:51.114Z,94.41
2017-09-18T15:59:44.140Z,94.79
2017-09-18T16:00:44.204Z,94.98
2017-09-18T16:02:37.172Z,94.98
2017-09-18T16:03:37.222Z,95.08
2017-09-18T16:05:30.241Z,94.89
2017-09-18T16:06:31.265Z,94.79
2017-09-18T16:08:23.282Z,94.98
2017-09-18T16:09:23.341Z,94.89
2017-09-18T16:11:16.343Z,94.60
2017-09-18T16:12:16.390Z,95.27
2017-09-18T16:14:09.403Z,95.36
2017-09-18T16:15:09.445Z,95.27
2017-09-18T16:17:02.445Z,95.36
2017-09-18T16:18:02.488Z,96.13
2017-09-18T16:19:55.493Z,95.65
2017-09-18T16:20:55.538Z,95.84
2017-09-18T16:22:48.524Z,96.17
2017-09-18T16:23:48.584Z,96.08
2017-09-18T16:25:41.611Z,96.37
2017-09-18T16:26:41.636Z,96.08
2017-09-18T16:28:34.626Z,97.03
2017-09-18T16:29:34.683Z,97.61
2017-09-18T16:31:27.690Z,98.37
2017-09-18T16:32:27.733Z,98.85
2017-09-18T16:34:20.747Z,98.47
2017-09-18T16:35:20.798Z,98.66
2017-09-18T16:37:13.816Z,98.94
2017-09-18T16:38:13.857Z,98.75
2017-09-18T16:40:06.858Z,98.27
2017-09-18T16:41:06.897Z,99.04
2017-09-18T16:42:59.914Z,97.71
2017-09-18T16:43:59.954Z,98.08
2017-09-18T16:45:52.969Z,98.08
2017-09-18T16:46:52.999Z,98.85
2017-09-18T16:48:45.991Z,97.80
2017-09-18T16:49:46.055Z,97.89
2017-09-18T16:51:39.062Z,98.66
2017-09-18T16:52:39.115Z,98.94
2017-09-18T16:54:32.100Z,99.04
2017-09-18T16:55:32.171Z,99.52
2017-09-18T16:57:25.189Z,99.13
2017-09-18T16:58:25.218Z,99.04
2017-09-18T17:00:18.240Z,97.99
2017-09-18T17:01:18.280Z,97.80
2017-09-18T17:03:11.277Z,98.13
2017-09-18T17:04:11.345Z,97.94
2017-09-18T17:06:04.360Z,98.23
2017-09-18T17:07:04.392Z,97.18
2017-09-18T17:08:57.388Z,98.18
2017-09-18T17:09:57.462Z,98.13
2017-09-18T17:11:50.475Z,98.13
2017-09-18T17:12:50.513Z,97.71
2017-09-18T17:14:43.521Z,99.04
2017-09-18T17:15:43.565Z,98.37
2017-09-18T17:17:36.593Z,99.23
2017-09-18T17:18:36.628Z,98.85
2017-09-18T17:20:29.653Z,99.23
2017-09-18T17:21:29.682Z,98.66
2017-09-18T17:23:22.678Z,99.99
2017-09-18T17:24:22.739Z,99.99
2017-09-18T17:26:15.768Z,99.99
2017-09-18T17:27:15.797Z,99.90
2017-09-18T17:29:08.791Z,99.99
2017-09-18T17:30:08.864Z,99.90
2017-09-18T17:32:01.883Z,99.99
2017-09-18T17:33:01.905Z,99.99
2017-09-18T17:34:54.921Z,99.90
2017-09-18T17:35:54.984Z,99.99
2017-09-18T17:37:48.033Z,99.99
2017-09-18T17:38:48.025Z,99.99
2017-09-18T17:40:41.045Z,99.99
2017-09-18T17:41:41.082Z,99.99
2017-09-18T17:43:34.082Z,99.99
2017-09-18T17:44:34.147Z,99.99
2017-09-18T17:46:27.172Z,99.99
2017-09-18T17:47:27.200Z,99.99
2017-09-18T17:49:20.205Z,99.99
2017-09-18T17:50:20.272Z,99.99
2017-09-18T17:52:13.316Z,99.99
2017-09-18T17:53:13.343Z,99.99
2017-09-18T17:55:06.319Z,99.99
2017-09-18T17:56:06.411Z,99.99
2017-09-18T17:57:59.391Z,99.99
2017-09-18T17:58:59.429Z,99.99
2017-09-18T18:00:54.011Z,99.99
2017-09-18T18:01:53.983Z,99.99
2017-09-18T18:03:46.989Z,99.99
2017-09-18T18:04:47.064Z,99.99
2017-09-18T18:06:40.043Z,99.99
2017-09-18T18:07:40.103Z,99.99
2017-09-18T18:09:33.072Z,99.99
2017-09-18T18:10:33.133Z,99.99
2017-09-18T18:12:26.158Z,99.99
2017-09-18T18:13:26.188Z,99.99
2017-09-18T18:15:19.185Z,99.99
2017-09-18T18:16:19.248Z,99.99
2017-09-18T18:18:12.261Z,99.99
2017-09-18T18:19:12.294Z,99.99
2017-09-18T18:21:05.305Z,99.99
2017-09-18T18:22:05.351Z,99.99
2017-09-18T18:23:58.335Z,99.99
2017-09-18T18:24:58.395Z,99.99
2017-09-18T18:26:51.436Z,99.99
2017-09-18T18:27:51.441Z,99.99
2017-09-18T18:29:44.442Z,99.99
2017-09-18T18:30:44.495Z,99.99
2017-09-18T18:32:37.504Z,99.99
2017-09-18T18:33:37.542Z,99.99